Skip to main content

NOAA/GLERL Met Station at Chicago, IL

Previous 3 Hours (2 minute increments)
See also Previous 5 Days (top of hour)
Jump down to Data
Switch to [English][Metric]
Zoom: Click and drag, Pan: shift-click and drag, Unzoom: double-click, Unzoom All




See also 1-day windrose plot


NOAA/GLERL Met Station at Chicago, IL

Previous 3 Hours (2 minute increments)
See also Previous 5 Days (top of hour only)
Jump up to Graphs
Switch to [English][Metric]
                  Wind  Wind  Wind   Air   Dew   Rel
                   Spd   Gst   Dir  Temp    Pt   Hum
YYYY-MM-DD   CDT   kts   kts   deg     F     F     %
2021-05-16 15:50  14.6  15.2    85  59.4  50.1  71.1
2021-05-16 15:48  14.4  14.8    86  59.2  50.5  72.5
2021-05-16 15:46  14.0  14.6    86  59.2  50.6  72.8
2021-05-16 15:44  14.0  14.4    86  59.2  50.6  73.0
2021-05-16 15:42  14.0  14.6    85  59.2  50.7  73.3
2021-05-16 15:40  14.6  15.6    85  59.2  50.5  72.7
2021-05-16 15:38  14.8  15.6    85  59.2  50.4  72.4
2021-05-16 15:36  14.8  15.2    85  59.2  50.2  71.9
2021-05-16 15:34  14.8  15.4    88  59.0  50.6  73.4
2021-05-16 15:32  15.0  15.7    88  59.2  50.5  72.6
2021-05-16 15:30  14.8  15.6    88  59.4  50.3  71.5
2021-05-16 15:28  14.6  15.0    87  59.5  49.9  70.1
2021-05-16 15:26  14.2  14.8    87  59.5  50.0  70.3
2021-05-16 15:24  14.2  15.6    86  59.5  49.7  69.6
2021-05-16 15:22  14.4  15.0    87  59.7  49.6  68.9
2021-05-16 15:20  14.6  15.2    87  59.7  49.3  68.1
2021-05-16 15:18  14.8  15.4    86  59.9  49.3  67.6
2021-05-16 15:16  14.6  15.2    87  59.7  49.5  68.6
2021-05-16 15:14  14.2  14.8    87  59.5  49.4  68.7
2021-05-16 15:12  14.2  15.0    88  59.5  49.5  69.1
2021-05-16 15:10  14.2  14.8    88  59.4  49.7  70.0
2021-05-16 15:08  14.4  15.0    89  59.5  49.9  70.1
2021-05-16 15:06  14.4  15.0    88  59.5  49.4  68.7
2021-05-16 15:04  14.2  14.8    87  59.9  49.4  67.8
2021-05-16 15:02  14.6  15.0    86  59.9  48.8  66.3
2021-05-16 15:00  14.4  14.8    86  59.9  49.0  67.0
2021-05-16 14:58  14.2  14.8    86  59.7  49.2  67.8
2021-05-16 14:56  14.6  15.4    86  59.9  49.0  67.0
2021-05-16 14:54  14.6  15.2    86  59.7  49.3  68.1
2021-05-16 14:52  14.6  15.6    89  59.7  49.8  69.4
2021-05-16 14:50  14.8  15.6    85  60.1  49.4  67.4
2021-05-16 14:48  14.8  15.2    84  59.9  49.1  67.2
2021-05-16 14:46  15.0  15.4    85  59.9  49.2  67.4
2021-05-16 14:44  15.0  15.4    86  59.7  49.3  68.1
2021-05-16 14:42  15.0  15.4    87  59.9  49.5  68.2
2021-05-16 14:40  15.2  15.6    85  60.1  49.3  67.2
2021-05-16 14:38  15.2  15.7    86  60.4  49.0  65.5
2021-05-16 14:36  15.2  15.6    85  60.6  48.4  63.6
2021-05-16 14:34  15.0  15.4    86  60.4  48.6  64.6
2021-05-16 14:32  15.0  15.7    86  60.3  48.8  65.6
2021-05-16 14:30  15.4  15.7    84  60.3  48.5  64.9
2021-05-16 14:28  15.7  16.1    83  60.1  48.3  64.7
2021-05-16 14:26  15.2  15.7    85  59.7  49.2  67.8
2021-05-16 14:24  14.8  15.4    87  59.9  49.3  67.7
2021-05-16 14:22  15.0  15.4    86  60.4  48.5  64.3
2021-05-16 14:20  15.0  15.4    85  60.6  47.7  62.0
2021-05-16 14:18  15.4  15.6    86  60.8  47.3  60.7
2021-05-16 14:16  15.4  15.6    87  60.4  47.5  61.9
2021-05-16 14:14  15.2  15.6    86  60.4  47.7  62.5
2021-05-16 14:12  15.2  15.7    87  60.3  47.9  63.4
2021-05-16 14:10  14.2  14.6    85  60.3  48.4  64.5
2021-05-16 14:08  14.2  14.6    84  60.4  47.7  62.4
2021-05-16 14:06  14.4  14.8    84  60.6  47.5  61.5
2021-05-16 14:04  14.2  14.8    85  60.4  47.6  62.3
2021-05-16 14:02  14.2  14.8    85  60.3  48.0  63.5
2021-05-16 14:00  14.4  14.8    85  60.4  48.0  63.1
2021-05-16 13:58  14.6  14.8    84  61.2  47.0  59.3
2021-05-16 13:56  14.4  14.6    83  61.7  45.6  55.2
2021-05-16 13:54  14.2  14.4    83  61.3  45.5  55.5
2021-05-16 13:52  14.0  14.4    84  61.2  46.1  57.3
2021-05-16 13:50  13.8  14.2    83  61.0  46.4  58.2
2021-05-16 13:48  13.4  13.8    83  60.6  47.0  60.4
2021-05-16 13:46  13.0  14.0    85  60.3  48.3  64.3
2021-05-16 13:44  13.0  13.4    87  60.3  48.5  64.7
2021-05-16 13:42  13.2  13.6    87  61.2  47.1  59.5
2021-05-16 13:40  13.4  13.6    85  61.7  45.4  54.6
2021-05-16 13:38  13.0  13.0    82  61.9  44.9  53.4
2021-05-16 13:36  13.0  13.0    84  61.5  45.0  54.2
2021-05-16 13:34  12.8  13.0    84  61.5  45.2  54.6
2021-05-16 13:32  12.8  13.0    85  61.5  45.1  54.5
2021-05-16 13:30  12.6  12.8    84  61.9  45.0  53.5
2021-05-16 13:28  12.2  12.4    84  61.7  44.9  53.6
2021-05-16 13:26  12.4  12.6    86  61.2  45.2  55.4
2021-05-16 13:24  12.4  12.4    88  60.6  47.0  60.5
2021-05-16 13:22  12.1  12.2    88  61.0  46.8  59.1
2021-05-16 13:20  12.2  12.2    88  61.5  45.4  55.1
2021-05-16 13:18  12.1  12.4    89  61.3  45.3  55.1
2021-05-16 13:16  12.4  12.6    90  60.8  46.4  58.7
2021-05-16 13:14  12.6  12.8    90  61.2  46.3  57.8
2021-05-16 13:12  12.1  12.2    87  61.7  45.2  54.3
2021-05-16 13:10  11.5  11.7    84  61.5  45.1  54.5
2021-05-16 13:08  11.5  11.7    86  61.0  45.4  56.2
2021-05-16 13:06  11.3  11.5    88  61.3  45.3  55.1
2021-05-16 13:04  11.3  11.3    87  61.5  45.0  54.2
2021-05-16 13:02  11.3  11.3    88  61.5  45.1  54.4
2021-05-16 13:00  11.1  11.3    90  61.3  45.1  54.8
2021-05-16 12:58  10.5  10.9    88  61.5  45.3  54.8
2021-05-16 12:56  10.3  10.5    90  61.3  45.1  54.8
2021-05-16 12:54  10.3  10.5    92  61.3  45.3  55.2
2021-05-16 12:52  10.1  10.3    91  61.3  45.2  55.0
2021-05-16 12:50  10.5  11.3    92  61.3  45.3  55.2